createdAt,value
2019-06-20T00:02:09.069Z,73.59
2019-06-20T00:04:40.733Z,73.51
2019-06-20T00:07:13.891Z,73.21
2019-06-20T00:09:45.457Z,73.07
2019-06-20T00:12:16.922Z,73.45
2019-06-20T00:14:48.337Z,73.83
2019-06-20T00:17:20.770Z,73.70
2019-06-20T00:19:52.206Z,73.56
2019-06-20T00:22:23.745Z,73.54
2019-06-20T00:24:55.301Z,73.37
2019-06-20T00:27:26.814Z,73.25
2019-06-20T00:29:58.287Z,73.16
2019-06-20T00:32:29.867Z,73.03
2019-06-20T00:35:01.389Z,72.91
2019-06-20T00:37:33.034Z,72.90
2019-06-20T00:40:05.323Z,72.83
2019-06-20T00:42:36.833Z,73.07
2019-06-20T00:45:08.912Z,73.39
2019-06-20T00:47:40.355Z,73.51
2019-06-20T00:50:12.831Z,73.62
2019-06-20T00:52:44.335Z,73.74
2019-06-20T00:55:15.807Z,73.87
2019-06-20T00:57:47.492Z,73.87
2019-06-20T01:00:20.388Z,73.97
2019-06-20T01:02:51.936Z,74.01
2019-06-20T01:05:23.663Z,73.92
2019-06-20T01:07:55.170Z,73.82
2019-06-20T01:10:26.697Z,73.70
2019-06-20T01:12:58.415Z,73.48
2019-06-20T01:15:29.930Z,73.53
2019-06-20T01:18:01.435Z,73.61
2019-06-20T01:20:32.925Z,73.56
2019-06-20T01:23:07.005Z,73.63
2019-06-20T01:25:42.285Z,74.05
2019-06-20T01:28:13.782Z,74.08
2019-06-20T01:30:45.539Z,74.08
2019-06-20T01:33:17.349Z,74.26
2019-06-20T01:35:49.054Z,74.07
2019-06-20T01:38:20.613Z,73.95
2019-06-20T01:40:52.120Z,74.01
2019-06-20T01:43:23.648Z,74.15
2019-06-20T01:45:55.182Z,74.05
2019-06-20T01:48:28.154Z,74.27
2019-06-20T01:50:59.727Z,74.18
2019-06-20T01:53:31.626Z,74.16
2019-06-20T01:56:03.124Z,74.08
2019-06-20T01:58:35.916Z,74.06
2019-06-20T02:01:07.435Z,74.19
2019-06-20T02:03:39.354Z,74.34
2019-06-20T02:06:10.797Z,74.43
2019-06-20T02:08:42.438Z,74.33
2019-06-20T02:11:13.977Z,74.27
2019-06-20T02:13:45.513Z,73.99
2019-06-20T02:16:17.047Z,73.96
2019-06-20T02:18:48.488Z,73.98
2019-06-20T02:21:20.160Z,73.98
2019-06-20T02:23:51.708Z,73.85
2019-06-20T02:26:23.102Z,73.67
2019-06-20T02:28:54.651Z,73.67
2019-06-20T02:31:27.211Z,73.75
2019-06-20T02:33:58.770Z,73.84
2019-06-20T02:36:30.244Z,73.78
2019-06-20T02:39:01.890Z,73.81
2019-06-20T02:41:35.517Z,73.77
2019-06-20T02:44:28.420Z,73.76
2019-06-20T02:46:42.096Z,73.74
2019-06-20T02:49:13.623Z,73.71
2019-06-20T02:51:45.409Z,73.73
2019-06-20T02:54:16.890Z,73.62
2019-06-20T02:56:48.433Z,73.54
2019-06-20T02:59:19.971Z,73.45
2019-06-20T03:01:51.546Z,73.56
2019-06-20T03:04:23.076Z,73.50
2019-06-20T03:06:54.834Z,73.65
2019-06-20T03:09:26.301Z,73.85
2019-06-20T03:11:58.120Z,73.95
2019-06-20T03:14:45.316Z,73.94
2019-06-20T03:17:14.997Z,73.85
2019-06-20T03:19:47.601Z,73.95
2019-06-20T03:22:19.205Z,73.97
2019-06-20T03:24:51.921Z,73.85
2019-06-20T03:27:23.684Z,73.80
2019-06-20T03:29:55.135Z,73.70
2019-06-20T03:32:26.594Z,73.79
2019-06-20T03:34:58.082Z,73.82
2019-06-20T03:37:29.563Z,73.71
2019-06-20T03:40:01.061Z,73.76
2019-06-20T03:42:32.567Z,73.97
2019-06-20T03:45:04.079Z,73.89
2019-06-20T03:47:37.388Z,74.17
2019-06-20T03:50:09.558Z,74.02
2019-06-20T03:52:41.113Z,74.08
2019-06-20T03:55:13.734Z,74.29
2019-06-20T03:57:45.249Z,74.40
2019-06-20T04:00:17.174Z,74.43
2019-06-20T04:02:48.651Z,74.55
2019-06-20T04:05:21.251Z,74.46
2019-06-20T04:07:52.730Z,74.58
2019-06-20T04:10:25.376Z,74.87
2019-06-20T04:12:57.947Z,75.02
2019-06-20T04:15:29.744Z,75.00
2019-06-20T04:18:01.449Z,75.10
2019-06-20T04:20:33.162Z,74.97
2019-06-20T04:23:05.225Z,74.94
2019-06-20T04:25:36.632Z,74.85
2019-06-20T04:28:08.148Z,74.79
2019-06-20T04:30:39.725Z,74.86
2019-06-20T04:33:11.234Z,74.85
2019-06-20T04:35:42.703Z,74.83
2019-06-20T04:38:15.272Z,74.84
2019-06-20T04:40:46.698Z,74.91
2019-06-20T04:43:18.185Z,74.75
2019-06-20T04:46:10.228Z,74.61
2019-06-20T04:48:41.658Z,75.20
2019-06-20T04:51:13.086Z,75.35
2019-06-20T04:53:44.833Z,75.75
2019-06-20T04:56:16.298Z,75.54
2019-06-20T04:58:47.815Z,75.38
2019-06-20T05:01:19.310Z,75.50
2019-06-20T05:03:50.870Z,75.34
2019-06-20T05:06:22.357Z,75.03
2019-06-20T05:08:53.914Z,75.25
2019-06-20T05:11:25.365Z,75.58
2019-06-20T05:13:56.878Z,75.36
2019-06-20T05:16:28.405Z,74.91
2019-06-20T05:19:00.038Z,74.35
2019-06-20T05:21:31.535Z,74.03
2019-06-20T05:24:02.974Z,73.65
2019-06-20T05:26:34.508Z,73.77
2019-06-20T05:29:06.007Z,73.79
2019-06-20T05:31:37.518Z,73.61
2019-06-20T05:34:09.034Z,73.30
2019-06-20T05:36:40.552Z,73.33
2019-06-20T05:39:12.038Z,73.64
2019-06-20T05:41:43.750Z,73.52
2019-06-20T05:44:15.225Z,73.55
2019-06-20T05:46:47.192Z,73.54
2019-06-20T05:49:19.097Z,73.19
2019-06-20T05:51:50.665Z,73.09
2019-06-20T05:54:22.388Z,73.03
2019-06-20T05:56:54.242Z,73.12
2019-06-20T05:59:25.836Z,73.33
2019-06-20T06:01:57.537Z,73.37
2019-06-20T06:04:29.503Z,73.38
2019-06-20T06:07:01.262Z,73.24
2019-06-20T06:09:33.034Z,73.10
2019-06-20T06:12:04.583Z,73.05
2019-06-20T06:14:37.153Z,72.85
2019-06-20T06:17:08.637Z,73.05
2019-06-20T06:19:40.080Z,72.66
2019-06-20T06:22:11.643Z,72.63
2019-06-20T06:24:43.235Z,72.59
2019-06-20T06:27:14.831Z,72.24
2019-06-20T06:29:46.378Z,72.29
2019-06-20T06:32:20.087Z,72.14
2019-06-20T06:34:51.214Z,71.98
2019-06-20T06:37:22.721Z,72.25
2019-06-20T06:39:54.237Z,72.06
2019-06-20T06:42:25.732Z,72.21
2019-06-20T06:44:57.531Z,72.55
2019-06-20T06:47:29.174Z,72.40
2019-06-20T06:50:01.223Z,72.37
2019-06-20T06:52:32.894Z,72.10
2019-06-20T06:55:05.589Z,72.65
2019-06-20T06:57:37.140Z,73.12
2019-06-20T07:00:10.944Z,73.09
2019-06-20T07:02:42.762Z,73.34
2019-06-20T07:05:14.739Z,73.48
2019-06-20T07:07:46.294Z,73.04
2019-06-20T07:10:18.480Z,73.06
2019-06-20T07:12:50.010Z,72.79
2019-06-20T07:15:21.964Z,73.08
2019-06-20T07:17:53.438Z,73.24
2019-06-20T07:20:25.235Z,72.69
2019-06-20T07:22:56.932Z,72.75
2019-06-20T07:25:29.982Z,72.32
2019-06-20T07:28:03.618Z,72.58
2019-06-20T07:30:36.244Z,72.64
2019-06-20T07:33:07.752Z,72.90
2019-06-20T07:35:41.838Z,72.80
2019-06-20T07:38:12.712Z,72.74
2019-06-20T07:40:45.526Z,72.64
2019-06-20T07:43:17.090Z,72.78
2019-06-20T07:46:02.096Z,73.06
2019-06-20T07:48:21.899Z,73.16
2019-06-20T07:50:53.720Z,73.49
2019-06-20T07:53:25.321Z,73.36
2019-06-20T07:55:56.936Z,73.70
2019-06-20T07:58:29.493Z,74.03
2019-06-20T08:01:01.031Z,74.32
2019-06-20T08:03:32.574Z,74.48
2019-06-20T08:06:04.531Z,74.55
2019-06-20T08:08:36.282Z,74.37
2019-06-20T08:11:08.421Z,74.43
2019-06-20T08:13:40.265Z,74.44
2019-06-20T08:16:11.814Z,74.58
2019-06-20T08:18:43.325Z,74.50
2019-06-20T08:21:15.004Z,74.51
2019-06-20T08:23:46.512Z,74.05
2019-06-20T08:26:18.108Z,74.27
2019-06-20T08:28:49.636Z,73.71
2019-06-20T08:31:21.188Z,73.72
2019-06-20T08:33:52.719Z,73.40
2019-06-20T08:36:24.358Z,73.25
2019-06-20T08:38:57.436Z,72.73
2019-06-20T08:41:29.552Z,72.71
2019-06-20T08:44:01.785Z,73.14
2019-06-20T08:46:33.539Z,72.46
2019-06-20T08:49:05.826Z,72.98
2019-06-20T08:51:37.782Z,72.11
2019-06-20T08:54:09.576Z,72.27
2019-06-20T08:56:43.694Z,71.04
2019-06-20T08:59:24.421Z,70.64
2019-06-20T09:01:48.545Z,70.14
2019-06-20T09:04:22.478Z,70.24
2019-06-20T09:06:55.741Z,69.52
2019-06-20T09:09:27.222Z,69.42
2019-06-20T09:12:00.292Z,69.65
2019-06-20T09:14:32.116Z,70.42
2019-06-20T09:17:03.683Z,70.91
2019-06-20T09:19:35.300Z,71.02
2019-06-20T09:22:07.229Z,71.59
2019-06-20T09:24:38.869Z,71.87
2019-06-20T09:27:10.790Z,72.30
2019-06-20T09:29:42.373Z,71.96
2019-06-20T09:32:13.968Z,71.96
2019-06-20T09:34:45.525Z,71.89
2019-06-20T09:37:17.276Z,71.31
2019-06-20T09:39:51.599Z,71.21
2019-06-20T09:42:22.907Z,71.01
2019-06-20T09:44:54.552Z,71.07
2019-06-20T09:47:26.560Z,69.90
2019-06-20T09:49:59.028Z,69.61
2019-06-20T09:52:30.612Z,68.84
2019-06-20T09:55:02.205Z,68.65
2019-06-20T09:57:33.777Z,68.69
2019-06-20T10:00:10.370Z,67.95
2019-06-20T10:02:40.967Z,68.02
2019-06-20T10:05:13.438Z,67.70
2019-06-20T10:07:45.558Z,67.56
2019-06-20T10:10:18.566Z,66.78
2019-06-20T10:12:50.081Z,65.59
2019-06-20T10:15:25.506Z,65.80
2019-06-20T10:17:57.007Z,65.01
2019-06-20T10:20:28.961Z,64.85
2019-06-20T10:23:00.545Z,65.41
2019-06-20T10:25:32.020Z,65.87
2019-06-20T10:28:03.732Z,65.25
2019-06-20T10:30:35.234Z,65.10
2019-06-20T10:33:06.829Z,63.95
2019-06-20T10:35:40.471Z,63.98
2019-06-20T10:38:12.106Z,64.34
2019-06-20T10:40:46.055Z,64.68
2019-06-20T10:43:17.028Z,64.98
2019-06-20T10:45:49.450Z,64.27
2019-06-20T10:48:21.091Z,64.59
2019-06-20T10:50:52.765Z,64.04
2019-06-20T10:53:24.450Z,64.25
2019-06-20T10:55:56.185Z,65.65
2019-06-20T10:58:27.959Z,65.79
2019-06-20T11:00:59.498Z,64.86
2019-06-20T11:03:31.069Z,62.83
2019-06-20T11:06:02.648Z,62.76
2019-06-20T11:08:34.258Z,62.46
2019-06-20T11:11:05.810Z,62.64
2019-06-20T11:13:38.996Z,62.58
2019-06-20T11:16:11.026Z,64.37
2019-06-20T11:18:43.618Z,65.33
2019-06-20T11:21:15.328Z,65.20
2019-06-20T11:23:50.335Z,64.24
2019-06-20T11:26:21.883Z,64.13
2019-06-20T11:28:55.829Z,62.78
2019-06-20T11:31:27.426Z,62.03
2019-06-20T11:33:59.003Z,62.16
2019-06-20T11:36:30.505Z,62.87
2019-06-20T11:39:03.708Z,62.02
2019-06-20T11:41:38.002Z,62.92
2019-06-20T11:44:09.622Z,62.26
2019-06-20T11:46:41.090Z,61.56
2019-06-20T11:49:14.302Z,61.86
2019-06-20T11:51:45.799Z,62.10
2019-06-20T11:54:17.849Z,60.30
2019-06-20T11:56:49.345Z,61.17
2019-06-20T11:59:21.287Z,60.14
2019-06-20T12:01:52.985Z,60.60
2019-06-20T12:04:24.564Z,60.43
2019-06-20T12:06:56.079Z,59.79
2019-06-20T12:09:27.504Z,59.79
2019-06-20T12:11:58.987Z,59.26
2019-06-20T12:14:30.772Z,59.37
2019-06-20T12:17:02.276Z,58.78
2019-06-20T12:19:34.706Z,61.41
2019-06-20T12:22:06.395Z,60.50
2019-06-20T12:24:40.011Z,60.33
2019-06-20T12:27:12.658Z,61.74
2019-06-20T12:29:46.428Z,60.98
2019-06-20T12:32:21.227Z,62.08
2019-06-20T12:34:52.782Z,60.96
2019-06-20T12:37:24.472Z,61.28
2019-06-20T12:39:56.234Z,61.32
2019-06-20T12:42:27.734Z,62.64
2019-06-20T12:44:59.216Z,62.28
2019-06-20T12:47:30.628Z,61.47
2019-06-20T12:50:02.156Z,61.39
2019-06-20T12:52:33.655Z,59.15
2019-06-20T12:55:05.525Z,59.35
2019-06-20T12:57:38.469Z,60.27
2019-06-20T13:00:11.401Z,60.29
2019-06-20T13:02:43.744Z,59.08
2019-06-20T13:05:17.599Z,57.80
2019-06-20T13:07:50.359Z,58.18
2019-06-20T13:10:23.693Z,59.27
2019-06-20T13:12:55.213Z,59.73
2019-06-20T13:15:27.146Z,59.78
2019-06-20T13:17:59.074Z,59.78
2019-06-20T13:20:32.970Z,60.00
2019-06-20T13:23:04.595Z,58.66
2019-06-20T13:25:36.226Z,57.23
2019-06-20T13:28:07.779Z,55.85
2019-06-20T13:30:46.869Z,56.09
2019-06-20T13:33:15.767Z,56.96
2019-06-20T13:35:48.634Z,57.16
2019-06-20T13:38:21.607Z,55.39
2019-06-20T13:40:53.228Z,54.90
2019-06-20T13:43:24.713Z,57.01
2019-06-20T13:45:56.405Z,57.13
2019-06-20T13:48:27.921Z,55.43
2019-06-20T13:50:59.616Z,57.88
2019-06-20T13:53:31.215Z,56.15
2019-06-20T13:56:04.343Z,55.99
2019-06-20T13:58:35.855Z,55.04
2019-06-20T14:01:07.363Z,55.30
2019-06-20T14:03:40.513Z,55.16
2019-06-20T14:06:12.166Z,54.99
2019-06-20T14:08:44.796Z,54.70
2019-06-20T14:11:17.538Z,54.34
2019-06-20T14:13:52.600Z,55.16
2019-06-20T14:16:22.701Z,56.13
2019-06-20T14:18:54.202Z,55.21
2019-06-20T14:21:25.955Z,57.58
2019-06-20T14:23:57.647Z,57.61
2019-06-20T14:26:29.195Z,56.05
2019-06-20T14:29:00.880Z,56.90
2019-06-20T14:31:33.006Z,56.97
2019-06-20T14:34:04.851Z,57.26
2019-06-20T14:36:36.541Z,55.69
2019-06-20T14:39:09.940Z,55.28
2019-06-20T14:41:42.077Z,55.00
2019-06-20T14:44:14.803Z,55.45
2019-06-20T14:46:46.396Z,56.80
2019-06-20T14:49:18.213Z,56.59
2019-06-20T14:51:50.160Z,55.20
2019-06-20T14:54:21.762Z,54.77
2019-06-20T14:56:53.938Z,55.10
2019-06-20T14:59:25.519Z,54.28
2019-06-20T15:01:56.938Z,55.69
2019-06-20T15:04:28.744Z,55.88
2019-06-20T15:07:01.924Z,56.54
2019-06-20T15:09:33.470Z,56.58
2019-06-20T15:12:05.009Z,56.19
2019-06-20T15:14:38.371Z,57.06
2019-06-20T15:17:10.863Z,57.85
2019-06-20T15:19:42.371Z,57.12
2019-06-20T15:22:13.909Z,57.34
2019-06-20T15:24:48.509Z,58.24
2019-06-20T15:27:18.850Z,56.96
2019-06-20T15:29:52.213Z,57.25
2019-06-20T15:32:25.714Z,58.71
2019-06-20T15:34:57.356Z,57.87
2019-06-20T15:37:28.971Z,58.63
2019-06-20T15:40:00.481Z,58.27
2019-06-20T15:42:32.095Z,59.35
2019-06-20T15:45:04.570Z,58.74
2019-06-20T15:47:37.295Z,61.02
2019-06-20T15:50:09.366Z,59.71
2019-06-20T15:52:45.177Z,60.11
2019-06-20T15:55:20.010Z,59.81
2019-06-20T15:57:54.063Z,59.79
2019-06-20T16:00:24.838Z,58.37
2019-06-20T16:03:09.598Z,58.88
2019-06-20T16:05:30.693Z,57.83
2019-06-20T16:08:04.284Z,58.19
2019-06-20T16:10:35.761Z,58.30
2019-06-20T16:13:07.263Z,57.19
2019-06-20T16:15:38.898Z,55.59
2019-06-20T16:18:12.570Z,54.86
2019-06-20T16:20:44.179Z,55.39
2019-06-20T16:23:15.931Z,54.47
2019-06-20T16:25:47.684Z,53.12
2019-06-20T16:28:19.520Z,52.83
2019-06-20T16:30:51.010Z,52.68
2019-06-20T16:33:25.460Z,52.18
2019-06-20T16:35:56.797Z,52.54
2019-06-20T16:38:28.478Z,51.28
2019-06-20T16:41:00.043Z,51.22
2019-06-20T16:43:31.713Z,50.67
2019-06-20T16:46:04.071Z,50.59
2019-06-20T16:48:35.586Z,50.86
2019-06-20T16:51:07.087Z,51.03
2019-06-20T16:53:38.583Z,52.31
2019-06-20T16:56:10.095Z,51.03
2019-06-20T16:58:41.932Z,50.88
2019-06-20T17:01:15.404Z,50.78
2019-06-20T17:03:46.899Z,50.66
2019-06-20T17:06:18.546Z,49.75
2019-06-20T17:08:50.000Z,50.60
2019-06-20T17:11:21.537Z,50.20
2019-06-20T17:13:53.074Z,50.75
2019-06-20T17:16:25.215Z,51.35
2019-06-20T17:18:57.601Z,52.64
2019-06-20T17:21:29.153Z,51.99
2019-06-20T17:24:00.786Z,52.36
2019-06-20T17:26:32.492Z,53.34
2019-06-20T17:29:04.250Z,53.08
2019-06-20T17:31:35.803Z,53.12
2019-06-20T17:34:07.875Z,53.88
2019-06-20T17:36:46.660Z,54.42
2019-06-20T17:39:18.178Z,55.78
2019-06-20T17:41:55.192Z,56.35
2019-06-20T17:44:23.079Z,56.37
2019-06-20T17:46:54.616Z,56.35
2019-06-20T17:49:26.246Z,55.97
2019-06-20T17:51:57.800Z,56.19
2019-06-20T17:54:29.207Z,56.25
2019-06-20T17:57:00.874Z,56.24
2019-06-20T17:59:32.471Z,56.74
2019-06-20T18:02:04.060Z,57.08
2019-06-20T18:04:35.835Z,56.30
2019-06-20T18:07:07.407Z,54.89
2019-06-20T18:09:38.910Z,54.77
2019-06-20T18:12:12.176Z,55.30
2019-06-20T18:14:44.062Z,55.39
2019-06-20T18:17:15.809Z,55.99
2019-06-20T18:19:47.345Z,56.66
2019-06-20T18:22:18.863Z,56.83
2019-06-20T18:24:50.387Z,56.71
2019-06-20T18:27:21.955Z,56.68
2019-06-20T18:29:53.434Z,56.70
2019-06-20T18:32:26.082Z,56.75
2019-06-20T18:35:01.936Z,56.95
2019-06-20T18:37:31.969Z,57.21
2019-06-20T18:40:04.038Z,57.42
2019-06-20T18:42:36.206Z,57.28
2019-06-20T18:45:09.278Z,57.03
2019-06-20T18:47:40.914Z,56.94
2019-06-20T18:50:16.130Z,56.66
2019-06-20T18:52:52.336Z,56.62
2019-06-20T18:55:21.197Z,57.12
2019-06-20T18:57:52.905Z,56.79
2019-06-20T19:00:34.585Z,57.08
2019-06-20T19:03:00.162Z,56.97
2019-06-20T19:05:32.706Z,57.17
2019-06-20T19:08:04.269Z,57.32
2019-06-20T19:10:35.876Z,57.36
2019-06-20T19:13:07.610Z,57.47
2019-06-20T19:15:39.224Z,57.57
2019-06-20T19:18:10.862Z,57.82
2019-06-20T19:20:42.796Z,58.31
2019-06-20T19:23:14.728Z,58.94
2019-06-20T19:25:46.362Z,59.31
2019-06-20T19:28:17.931Z,59.35
2019-06-20T19:30:52.879Z,59.49
2019-06-20T19:33:26.408Z,59.69
2019-06-20T19:35:57.988Z,60.01
2019-06-20T19:38:29.770Z,60.09
2019-06-20T19:41:01.363Z,60.35
2019-06-20T19:43:32.903Z,60.35
2019-06-20T19:46:04.616Z,60.41
2019-06-20T19:48:36.956Z,60.62
2019-06-20T19:51:08.858Z,60.71
2019-06-20T19:53:45.754Z,60.83
2019-06-20T19:56:15.419Z,60.87
2019-06-20T19:58:47.349Z,61.02
2019-06-20T20:01:18.937Z,61.04
2019-06-20T20:03:50.538Z,61.30
2019-06-20T20:06:22.494Z,61.64
2019-06-20T20:08:54.133Z,61.98
2019-06-20T20:11:25.687Z,62.37
2019-06-20T20:13:58.408Z,62.34
2019-06-20T20:16:29.920Z,62.45
2019-06-20T20:19:01.412Z,62.63
2019-06-20T20:21:33.174Z,62.67
2019-06-20T20:24:04.754Z,62.87
2019-06-20T20:26:36.888Z,62.96
2019-06-20T20:29:08.461Z,63.07
2019-06-20T20:31:40.016Z,63.04
2019-06-20T20:34:12.020Z,62.98
2019-06-20T20:36:43.915Z,62.99
2019-06-20T20:39:17.057Z,63.18
2019-06-20T20:41:50.748Z,63.26
2019-06-20T20:44:23.227Z,63.23
2019-06-20T20:46:54.822Z,63.11
2019-06-20T20:49:26.392Z,63.19
2019-06-20T20:51:57.846Z,63.12
2019-06-20T20:54:29.380Z,63.16
2019-06-20T20:57:01.063Z,63.27
2019-06-20T20:59:33.697Z,63.20
2019-06-20T21:02:07.288Z,63.14
2019-06-20T21:04:39.463Z,63.13
2019-06-20T21:07:11.053Z,63.11
2019-06-20T21:09:42.575Z,63.18
2019-06-20T21:12:14.925Z,63.22
2019-06-20T21:14:47.416Z,63.32
2019-06-20T21:17:19.873Z,63.19
2019-06-20T21:19:51.465Z,63.22
2019-06-20T21:22:23.019Z,63.28
2019-06-20T21:24:54.480Z,63.24
2019-06-20T21:27:26.047Z,63.23
2019-06-20T21:29:57.615Z,63.30
2019-06-20T21:32:29.156Z,63.36
2019-06-20T21:35:00.900Z,63.41
2019-06-20T21:37:33.653Z,63.40
2019-06-20T21:40:05.577Z,63.37
2019-06-20T21:42:37.417Z,63.30
2019-06-20T21:45:10.827Z,63.32
2019-06-20T21:47:42.389Z,63.38
2019-06-20T21:50:14.298Z,63.29
2019-06-20T21:52:45.919Z,63.39
2019-06-20T21:55:17.802Z,63.42
2019-06-20T21:57:49.217Z,63.49
2019-06-20T22:00:30.575Z,63.78
2019-06-20T22:03:03.674Z,63.76
2019-06-20T22:05:35.226Z,63.77
2019-06-20T22:08:07.415Z,63.80
2019-06-20T22:10:40.083Z,64.11
2019-06-20T22:13:11.706Z,64.27
2019-06-20T22:15:43.406Z,64.82
2019-06-20T22:18:15.264Z,65.73
2019-06-20T22:20:46.822Z,64.90
2019-06-20T22:23:18.327Z,65.32
2019-06-20T22:25:49.950Z,65.90
2019-06-20T22:28:21.949Z,65.72
2019-06-20T22:30:55.643Z,65.73
2019-06-20T22:33:27.257Z,65.84
2019-06-20T22:35:58.731Z,65.71
2019-06-20T22:38:30.136Z,65.96
2019-06-20T22:41:01.763Z,66.01
2019-06-20T22:43:33.244Z,65.80
2019-06-20T22:46:04.852Z,65.91
2019-06-20T22:48:39.013Z,66.04
2019-06-20T22:51:13.685Z,66.04
2019-06-20T22:53:43.733Z,66.20
2019-06-20T22:56:15.188Z,66.12
2019-06-20T22:58:46.654Z,66.33
2019-06-20T23:01:18.076Z,66.29
2019-06-20T23:03:49.540Z,66.27
2019-06-20T23:06:21.025Z,66.24
2019-06-20T23:08:52.506Z,66.57
2019-06-20T23:11:23.991Z,66.40
2019-06-20T23:13:55.782Z,66.42
2019-06-20T23:16:27.266Z,66.49
2019-06-20T23:18:58.723Z,66.77
2019-06-20T23:21:30.187Z,66.87
2019-06-20T23:24:01.632Z,66.97
2019-06-20T23:26:52.281Z,66.89
2019-06-20T23:29:23.789Z,66.84
2019-06-20T23:31:56.158Z,66.87
2019-06-20T23:34:27.658Z,66.95
2019-06-20T23:37:12.221Z,67.44
2019-06-20T23:39:32.379Z,67.53
2019-06-20T23:42:04.817Z,67.91
2019-06-20T23:44:36.305Z,67.79
2019-06-20T23:47:08.286Z,67.77
2019-06-20T23:49:39.858Z,68.01
2019-06-20T23:52:16.185Z,68.37
2019-06-20T23:54:47.808Z,68.62
2019-06-20T23:57:19.633Z,68.47
2019-06-20T23:59:51.173Z,68.42
